createdAt,value
2023-02-16T00:01:17.526Z,32.53
2023-02-16T00:03:44.390Z,32.93
2023-02-16T00:06:15.795Z,29.57
2023-02-16T00:08:50.795Z,32.30
2023-02-16T00:11:52.292Z,31.90
2023-02-16T00:14:22.592Z,32.03
2023-02-16T00:16:50.153Z,33.57
2023-02-16T00:19:36.832Z,31.83
2023-02-16T00:22:04.852Z,30.87
2023-02-16T00:24:31.832Z,32.47
2023-02-16T00:27:00.376Z,34.03
2023-02-16T00:29:30.656Z,32.63
2023-02-16T00:31:58.785Z,31.13
2023-02-16T00:34:32.867Z,37.20
2023-02-16T00:37:05.118Z,29.37
2023-02-16T00:39:31.827Z,27.80
2023-02-16T00:42:01.797Z,27.73
2023-02-16T00:44:33.751Z,33.87
2023-02-16T00:47:22.359Z,32.87
2023-02-16T00:49:51.608Z,29.60
2023-02-16T00:52:25.209Z,28.90
2023-02-16T00:54:52.020Z,31.07
2023-02-16T00:57:19.857Z,28.90
2023-02-16T00:59:48.690Z,34.17
2023-02-16T01:02:15.613Z,32.60
2023-02-16T01:04:42.246Z,30.87
2023-02-16T01:07:31.890Z,30.33
2023-02-16T01:10:17.052Z,28.83
2023-02-16T01:12:43.628Z,29.87
2023-02-16T01:15:13.895Z,30.00
2023-02-16T01:17:40.605Z,30.80
2023-02-16T01:20:16.192Z,30.23
2023-02-16T01:22:42.792Z,27.57
2023-02-16T01:25:09.547Z,28.73
2023-02-16T01:27:39.646Z,33.43
2023-02-16T01:30:08.479Z,35.50
2023-02-16T01:32:35.061Z,30.83
2023-02-16T01:35:01.612Z,30.43
2023-02-16T01:37:28.424Z,34.20
2023-02-16T01:39:54.971Z,36.23
2023-02-16T01:42:41.241Z,33.80
2023-02-16T01:45:19.312Z,28.50
2023-02-16T01:47:53.170Z,28.93
2023-02-16T01:50:23.176Z,31.60
2023-02-16T01:53:15.972Z,31.97
2023-02-16T01:55:46.965Z,31.40
2023-02-16T01:58:41.874Z,29.37
2023-02-16T02:01:39.527Z,28.50
2023-02-16T02:04:59.138Z,29.07
2023-02-16T02:07:31.132Z,29.60
2023-02-16T02:10:28.013Z,29.63
2023-02-16T02:13:07.220Z,29.97
2023-02-16T02:15:34.717Z,31.87
2023-02-16T02:18:01.850Z,30.43
2023-02-16T02:21:14.893Z,28.07
2023-02-16T02:24:14.116Z,27.40
2023-02-16T02:27:18.533Z,28.40
2023-02-16T02:30:08.005Z,23.93
2023-02-16T02:32:55.910Z,27.37
2023-02-16T02:36:07.789Z,27.17
2023-02-16T02:38:56.962Z,31.93
2023-02-16T02:41:55.469Z,25.27
2023-02-16T02:44:26.903Z,27.83
2023-02-16T02:46:53.639Z,27.43
2023-02-16T02:49:20.375Z,30.63
2023-02-16T02:51:47.956Z,28.80
2023-02-16T02:54:37.722Z,29.30
2023-02-16T02:57:29.148Z,31.17
2023-02-16T03:00:24.501Z,27.63
2023-02-16T03:02:54.962Z,33.00
2023-02-16T03:05:22.975Z,28.90
2023-02-16T03:07:52.278Z,26.93
2023-02-16T03:10:45.154Z,29.77
2023-02-16T03:13:17.434Z,26.90
2023-02-16T03:15:47.849Z,27.33
2023-02-16T03:18:35.136Z,26.03
2023-02-16T03:21:22.121Z,31.17
2023-02-16T03:24:09.843Z,30.90
2023-02-16T03:26:56.416Z,27.60
2023-02-16T03:29:26.032Z,30.27
2023-02-16T03:31:55.222Z,25.63
2023-02-16T03:34:22.524Z,26.83
2023-02-16T03:36:58.390Z,26.83
2023-02-16T03:39:27.432Z,28.70
2023-02-16T03:41:55.845Z,26.07
2023-02-16T03:44:22.897Z,27.73
2023-02-16T03:46:49.566Z,27.23
2023-02-16T03:49:17.212Z,26.40
2023-02-16T03:51:43.947Z,29.40
2023-02-16T03:54:10.720Z,31.70
2023-02-16T03:56:37.409Z,28.23
2023-02-16T03:59:04.005Z,26.27
2023-02-16T04:01:30.599Z,24.07
2023-02-16T04:03:57.223Z,29.83
2023-02-16T04:06:23.870Z,28.93
2023-02-16T04:08:50.848Z,26.93
2023-02-16T04:11:35.958Z,29.50
2023-02-16T04:14:03.271Z,29.13
2023-02-16T04:16:29.962Z,27.37
2023-02-16T04:18:56.702Z,32.37
2023-02-16T04:21:23.249Z,28.30
2023-02-16T04:23:49.790Z,26.77
2023-02-16T04:26:16.319Z,25.77
2023-02-16T04:28:42.892Z,28.93
2023-02-16T04:31:09.867Z,30.23
2023-02-16T04:33:36.485Z,31.83
2023-02-16T04:36:03.060Z,26.57
2023-02-16T04:38:30.210Z,28.97
2023-02-16T04:40:56.851Z,31.83
2023-02-16T04:43:23.525Z,29.77
2023-02-16T04:45:50.211Z,33.30
2023-02-16T04:48:16.843Z,33.07
2023-02-16T04:50:43.413Z,29.10
2023-02-16T04:53:10.002Z,29.00
2023-02-16T04:55:36.780Z,30.90
2023-02-16T04:58:03.390Z,28.57
2023-02-16T05:00:29.973Z,25.80
2023-02-16T05:02:57.094Z,33.50
2023-02-16T05:05:23.679Z,33.10
2023-02-16T05:07:50.224Z,29.97
2023-02-16T05:10:16.815Z,30.10
2023-02-16T05:13:03.684Z,28.40
2023-02-16T05:15:30.512Z,32.57
2023-02-16T05:17:57.303Z,27.50
2023-02-16T05:20:43.954Z,29.60
2023-02-16T05:23:10.582Z,28.93
2023-02-16T05:25:37.112Z,30.10
2023-02-16T05:28:03.772Z,29.63
2023-02-16T05:30:30.444Z,31.93
2023-02-16T05:32:57.019Z,33.50
2023-02-16T05:35:23.569Z,31.30
2023-02-16T05:37:50.115Z,28.23
2023-02-16T05:40:16.745Z,29.77
2023-02-16T05:42:43.312Z,32.03
2023-02-16T05:45:10.576Z,28.83
2023-02-16T05:47:37.136Z,30.77
2023-02-16T05:50:03.928Z,33.53
2023-02-16T05:52:30.527Z,33.03
2023-02-16T05:54:57.101Z,28.63
2023-02-16T05:57:23.676Z,32.37
2023-02-16T05:59:50.223Z,26.93
2023-02-16T06:02:16.806Z,31.50
2023-02-16T06:04:43.441Z,33.08
2023-02-16T06:07:10.005Z,32.63
2023-02-16T06:09:36.547Z,29.70
2023-02-16T06:12:03.441Z,31.23
2023-02-16T06:14:30.112Z,31.13
2023-02-16T06:16:58.703Z,28.47
2023-02-16T06:19:26.843Z,31.53
2023-02-16T06:21:53.431Z,31.13
2023-02-16T06:24:20.005Z,29.20
2023-02-16T06:26:46.596Z,31.37
2023-02-16T06:29:13.152Z,31.63
2023-02-16T06:31:39.838Z,31.57
2023-02-16T06:34:06.843Z,29.43
2023-02-16T06:36:34.480Z,31.90
2023-02-16T06:39:01.395Z,33.38
2023-02-16T06:41:40.795Z,28.33
2023-02-16T06:44:12.484Z,32.40
2023-02-16T06:46:43.219Z,33.27
2023-02-16T06:49:15.325Z,32.00
2023-02-16T06:51:42.019Z,32.47
2023-02-16T06:54:08.903Z,30.20
2023-02-16T06:56:37.668Z,27.53
2023-02-16T06:59:04.541Z,32.97
2023-02-16T07:01:31.378Z,35.57
2023-02-16T07:03:58.484Z,34.93
2023-02-16T07:06:27.701Z,33.30
2023-02-16T07:08:54.676Z,31.67
2023-02-16T07:11:21.985Z,34.37
2023-02-16T07:13:49.108Z,30.87
2023-02-16T07:16:16.135Z,32.63
2023-02-16T07:18:42.902Z,28.83
2023-02-16T07:21:09.493Z,31.80
2023-02-16T07:23:36.090Z,31.53
2023-02-16T07:26:02.790Z,31.40
2023-02-16T07:28:31.605Z,29.17
2023-02-16T07:30:58.328Z,35.73
2023-02-16T07:33:25.024Z,33.67
2023-02-16T07:35:51.821Z,29.67
2023-02-16T07:38:18.381Z,30.80
2023-02-16T07:40:45.007Z,32.10
2023-02-16T07:43:11.690Z,33.37
2023-02-16T07:45:38.466Z,32.13
2023-02-16T07:48:05.302Z,33.63
2023-02-16T07:50:31.871Z,33.00
2023-02-16T07:53:01.600Z,31.95
2023-02-16T07:55:28.298Z,28.50
2023-02-16T07:57:58.100Z,27.80
2023-02-16T08:00:26.709Z,24.30
2023-02-16T08:02:53.860Z,26.57
2023-02-16T08:05:20.586Z,23.40
2023-02-16T08:07:47.877Z,25.17
2023-02-16T08:10:15.700Z,30.00
2023-02-16T08:12:42.505Z,27.67
2023-02-16T08:15:09.882Z,23.47
2023-02-16T08:17:36.584Z,26.70
2023-02-16T08:20:05.340Z,23.40
2023-02-16T08:22:32.743Z,24.07
2023-02-16T08:24:59.842Z,21.73
2023-02-16T08:27:26.915Z,22.23
2023-02-16T08:29:54.177Z,21.90
2023-02-16T08:32:20.981Z,23.45
2023-02-16T08:34:47.644Z,23.43
2023-02-16T08:37:14.257Z,20.00
2023-02-16T08:39:41.455Z,21.07
2023-02-16T08:42:10.813Z,18.47
2023-02-16T08:44:37.458Z,24.03
2023-02-16T08:47:04.399Z,21.27
2023-02-16T08:49:31.071Z,21.33
2023-02-16T08:51:58.989Z,21.83
2023-02-16T08:54:29.891Z,27.03
2023-02-16T08:56:58.744Z,23.57
2023-02-16T08:59:28.353Z,24.27
2023-02-16T09:01:55.938Z,20.63
2023-02-16T09:04:24.429Z,24.33
2023-02-16T09:06:52.347Z,23.23
2023-02-16T09:09:19.413Z,23.50
2023-02-16T09:11:46.729Z,21.53
2023-02-16T09:14:13.675Z,21.73
2023-02-16T09:16:45.404Z,18.57
2023-02-16T09:19:14.974Z,18.33
2023-02-16T09:21:42.593Z,19.67
2023-02-16T09:24:11.445Z,23.87
2023-02-16T09:26:38.880Z,19.37
2023-02-16T09:29:07.024Z,19.50
2023-02-16T09:31:35.955Z,20.27
2023-02-16T09:34:19.541Z,17.57
2023-02-16T09:36:47.332Z,21.13
2023-02-16T09:39:14.750Z,18.53
2023-02-16T09:41:41.750Z,17.20
2023-02-16T09:44:09.757Z,16.30
2023-02-16T09:46:36.914Z,15.97
2023-02-16T09:49:04.286Z,17.97
2023-02-16T09:51:35.014Z,20.17
2023-02-16T09:54:14.239Z,20.10
2023-02-16T09:56:45.463Z,15.97
2023-02-16T09:59:22.872Z,19.93
2023-02-16T10:02:20.723Z,19.17
2023-02-16T10:05:13.896Z,17.77
2023-02-16T10:07:43.731Z,19.43
2023-02-16T10:10:14.746Z,15.00
2023-02-16T10:12:43.450Z,16.50
2023-02-16T10:15:16.333Z,15.27
2023-02-16T10:17:49.381Z,13.37
2023-02-16T10:20:19.047Z,13.73
2023-02-16T10:22:49.861Z,12.77
2023-02-16T10:25:19.550Z,12.97
2023-02-16T10:27:49.042Z,8.50
2023-02-16T10:30:22.990Z,10.07
2023-02-16T10:32:58.873Z,10.07
2023-02-16T10:35:30.084Z,13.97
2023-02-16T10:38:04.465Z,9.53
2023-02-16T10:40:44.179Z,11.97
2023-02-16T10:43:14.250Z,18.83
2023-02-16T10:45:49.517Z,7.97
2023-02-16T10:48:20.790Z,9.50
2023-02-16T10:50:57.017Z,8.43
2023-02-16T10:53:33.349Z,8.87
2023-02-16T10:56:00.749Z,9.13
2023-02-16T10:58:34.384Z,10.23
2023-02-16T11:01:19.648Z,9.77
2023-02-16T11:03:50.792Z,10.83
2023-02-16T11:06:19.499Z,10.57
2023-02-16T11:08:49.807Z,7.03
2023-02-16T11:11:17.647Z,9.93
2023-02-16T11:13:48.389Z,10.63
2023-02-16T11:16:23.326Z,8.87
2023-02-16T11:19:07.028Z,8.50
2023-02-16T11:21:44.655Z,7.10
2023-02-16T11:24:13.165Z,15.77
2023-02-16T11:26:40.245Z,25.57
2023-02-16T11:29:18.315Z,11.23
2023-02-16T11:31:45.837Z,8.77
2023-02-16T11:34:12.926Z,16.25
2023-02-16T11:36:41.906Z,10.53
2023-02-16T11:39:16.180Z,10.60
2023-02-16T11:41:49.819Z,8.27
2023-02-16T11:44:26.915Z,7.93
2023-02-16T11:46:55.783Z,9.10
2023-02-16T11:49:33.524Z,8.17
2023-02-16T11:52:00.858Z,9.00
2023-02-16T11:54:27.878Z,7.43
2023-02-16T11:57:06.499Z,7.10
2023-02-16T11:59:36.100Z,9.97
2023-02-16T12:02:06.148Z,8.27
2023-02-16T12:04:52.603Z,10.07
2023-02-16T12:07:38.635Z,9.63
2023-02-16T12:10:11.194Z,10.23
2023-02-16T12:12:41.351Z,8.60
2023-02-16T12:15:21.511Z,9.57
2023-02-16T12:17:48.779Z,9.07
2023-02-16T12:20:25.650Z,8.87
2023-02-16T12:23:00.865Z,8.63
2023-02-16T12:25:35.476Z,9.30
2023-02-16T12:28:13.460Z,11.00
2023-02-16T12:30:55.237Z,8.67
2023-02-16T12:33:35.812Z,11.07
2023-02-16T12:36:12.844Z,11.40
2023-02-16T12:39:00.256Z,10.83
2023-02-16T12:41:33.714Z,7.60
2023-02-16T12:44:06.967Z,11.23
2023-02-16T12:46:42.801Z,8.47
